Página principal
METAR-TAF:

METAR-TAF

Aeroportos :

Nassau, Bahamas

Aeroporto Internacional Lynden Pindling

latitude: 25-03N, longitude: 077-28W, altura: 3 m

Observação actual do tempo

O boletim foi feito há 23 minutos, às 13:00 UTC
Vento 4 kt de nordeste
Temperatura 20°C
Humidade 60%
Pressão 1024 hPa
Visibilidade 10 km ou mais
Poucas nuvensa uma altura de 2000 ft
Nuvens dispersasa uma altura de 4000 ft
Nuvens fragmentadasa uma altura de 8000 ft

METAR: MYNN 191300Z 04004KT 9999 FEW020 SCT040 BKN080 20/12 A3023

Hora: 08:23 (13:23 UTC)

Previsão

O boletim foi feito há 3 horas e 23 minutos, às 10:00 UTC
Previsão válida de 19 às 12 UTC a 20 às 12 UTC
Vento 6 kt de nordeste
Visibilidade 10 km ou mais
Poucas nuvensa uma altura de 2000 ft
Nuvens fragmentadasa uma altura de 4000 ft

TAF: MYNN 191000Z 1912/2012 04006KT 9999 FEW020 BKN040

Observações e previsões do tempo de mais de 4000 aeroportos (mensagens METAR e TAF).

As estações disponíveis são os pontos amarelos e vermelhos sobre o mapa.

Mova o rato sobre o mapa para ver o nome da estação.

Depois clique no ponto para visualizar as observações e previsões meteorológicas.

Para alterar o mapa : clique nos botões verdes com uma cruz preta para aumentar o zoom; no botão verde com uma pitada de zoom; ou nas setas verdes para mapas adjacentes.


METAR-TAF: